Terminal Aerodrome Forecast
Issued by NWS

Home | Current Version | Previous Version | Text Only | Print | Product List | Glossary On
Versions: 1 2 3 4 5 6 7 8 9 10 11 12 13 14 15 16 17 18 19 20 21 22 23
000
FTUS45 KBOU 170535
TAFBJC
TAF
KBJC 170535Z 1706/1806 08007KT P6SM SCT008 OVC014
     FM170700 09007KT 5SM BR BKN005 OVC008
      TEMPO 1707/1711 2SM -FZDZSN BR OVC002
     FM171400 12005KT P6SM VCFG BKN008 OVC020
     FM171900 15007KT P6SM SCT020 BKN150
     FM172200 20006KT P6SM FEW070 SCT120=

USA.gov is the U.S. government's official web portal to all federal, state and local government web resources and services.